createdAt,value
2018-11-28T00:00:53.477Z,1.00
2018-11-28T00:03:27.941Z,1.00
2018-11-28T00:06:02.569Z,1.00
2018-11-28T00:08:36.920Z,1.00
2018-11-28T00:11:11.281Z,0.90
2018-11-28T00:13:45.680Z,0.90
2018-11-28T00:16:20.113Z,0.80
2018-11-28T00:18:54.539Z,0.70
2018-11-28T00:21:29.188Z,0.60
2018-11-28T00:24:03.563Z,0.50
2018-11-28T00:26:37.973Z,0.40
2018-11-28T00:29:12.491Z,0.40
2018-11-28T00:31:46.985Z,0.40
2018-11-28T00:34:21.567Z,0.40
2018-11-28T00:36:56.201Z,0.30
2018-11-28T00:39:30.666Z,0.30
2018-11-28T00:42:05.282Z,0.30
2018-11-28T00:44:39.827Z,0.30
2018-11-28T00:47:14.154Z,0.20
2018-11-28T00:49:48.699Z,0.20
2018-11-28T00:52:23.162Z,0.20
2018-11-28T00:54:57.605Z,0.20
2018-11-28T00:57:32.149Z,0.20
2018-11-28T01:00:10.772Z,0.20
2018-11-28T01:02:45.193Z,0.20
2018-11-28T01:05:19.711Z,0.20
2018-11-28T01:07:55.027Z,0.20
2018-11-28T01:10:29.433Z,0.10
2018-11-28T01:13:03.980Z,0.10
2018-11-28T01:15:38.285Z,0.10
2018-11-28T01:18:12.828Z,0.20
2018-11-28T01:20:47.277Z,0.20
2018-11-28T01:23:21.803Z,0.30
2018-11-28T01:25:56.403Z,0.30
2018-11-28T01:28:30.918Z,0.30
2018-11-28T01:31:06.003Z,0.30
2018-11-28T01:33:40.597Z,0.30
2018-11-28T01:36:14.949Z,0.30
2018-11-28T01:38:49.563Z,0.30
2018-11-28T01:41:24.224Z,0.40
2018-11-28T01:43:58.839Z,0.30
2018-11-28T01:46:33.358Z,0.30
2018-11-28T01:49:07.798Z,0.20
2018-11-28T01:51:42.255Z,0.20
2018-11-28T01:54:16.596Z,0.20
2018-11-28T01:56:51.068Z,0.20
2018-11-28T01:59:25.591Z,0.20
2018-11-28T02:01:59.949Z,0.10
2018-11-28T02:04:34.227Z,0.10
2018-11-28T02:07:08.609Z,0.10
2018-11-28T02:09:43.120Z,0.00
2018-11-28T02:12:17.626Z,0.10
2018-11-28T02:14:52.031Z,0.10
2018-11-28T02:17:26.370Z,0.10
2018-11-28T02:20:00.842Z,0.20
2018-11-28T02:22:35.270Z,0.20
2018-11-28T02:25:10.913Z,0.20
2018-11-28T02:27:45.913Z,0.20
2018-11-28T02:30:20.499Z,0.20
2018-11-28T02:32:54.959Z,0.20
2018-11-28T02:35:29.229Z,0.20
2018-11-28T02:38:03.555Z,0.20
2018-11-28T02:40:37.936Z,0.10
2018-11-28T02:43:12.219Z,0.10
2018-11-28T02:45:56.630Z,0.10
2018-11-28T02:48:31.001Z,0.00
2018-11-28T02:51:06.357Z,0.00
2018-11-28T02:53:40.622Z,-0.10
2018-11-28T02:56:15.115Z,-0.10
2018-11-28T02:58:49.510Z,-0.10
2018-11-28T03:01:23.904Z,-0.10
2018-11-28T03:03:58.424Z,-0.10
2018-11-28T03:06:33.073Z,-0.10
2018-11-28T03:09:08.343Z,-0.10
2018-11-28T03:11:42.814Z,-0.20
2018-11-28T03:14:17.592Z,-0.20
2018-11-28T03:16:52.156Z,-0.30
2018-11-28T03:19:26.599Z,-0.30
2018-11-28T03:22:00.959Z,-0.30
2018-11-28T03:24:35.354Z,-0.30
2018-11-28T03:27:09.722Z,-0.30
2018-11-28T03:29:44.051Z,-0.20
2018-11-28T03:32:18.469Z,-0.20
2018-11-28T03:34:52.918Z,-0.10
2018-11-28T03:37:27.315Z,-0.20
2018-11-28T03:40:01.662Z,-0.20
2018-11-28T03:42:36.175Z,-0.10
2018-11-28T03:45:11.799Z,-0.10
2018-11-28T03:47:46.436Z,-0.10
2018-11-28T03:50:21.032Z,-0.10
2018-11-28T03:52:55.413Z,-0.10
2018-11-28T03:55:29.691Z,-0.10
2018-11-28T03:58:04.162Z,-0.10
2018-11-28T04:00:38.792Z,-0.10
2018-11-28T04:03:13.372Z,-0.20
2018-11-28T04:05:47.887Z,-0.10
2018-11-28T04:08:22.409Z,-0.20
2018-11-28T04:10:56.677Z,-0.30
2018-11-28T04:13:31.048Z,-0.30
2018-11-28T04:16:06.285Z,-0.40
2018-11-28T04:18:40.801Z,-0.40
2018-11-28T04:21:15.073Z,-0.40
2018-11-28T04:23:49.439Z,-0.40
2018-11-28T04:26:23.863Z,-0.40
2018-11-28T04:28:58.211Z,-0.40
2018-11-28T04:31:32.568Z,-0.40
2018-11-28T04:34:06.943Z,-0.30
2018-11-28T04:36:41.401Z,-0.30
2018-11-28T04:39:15.929Z,-0.40
2018-11-28T04:41:50.293Z,-0.40
2018-11-28T04:44:24.878Z,-0.40
2018-11-28T04:46:59.183Z,-0.40
2018-11-28T04:49:33.696Z,-0.40
2018-11-28T04:52:08.278Z,-0.40
2018-11-28T04:54:42.773Z,-0.40
2018-11-28T04:57:17.160Z,-0.50
2018-11-28T04:59:51.427Z,-0.50
2018-11-28T05:02:25.841Z,-0.60
2018-11-28T05:05:00.338Z,-0.60
2018-11-28T05:07:34.835Z,-0.70
2018-11-28T05:10:18.687Z,-0.60
2018-11-28T05:12:53.702Z,-0.60
2018-11-28T05:15:29.227Z,-0.70
2018-11-28T05:18:03.641Z,-0.70
2018-11-28T05:20:38.005Z,-0.70
2018-11-28T05:23:12.425Z,-0.80
2018-11-28T05:25:46.896Z,-0.80
2018-11-28T05:28:21.265Z,-0.70
2018-11-28T05:30:55.603Z,-0.70
2018-11-28T05:33:30.020Z,-0.70
2018-11-28T05:36:04.367Z,-0.70
2018-11-28T05:38:38.996Z,-0.70
2018-11-28T05:41:13.511Z,-0.70
2018-11-28T05:43:48.079Z,-0.70
2018-11-28T05:46:22.584Z,-0.70
2018-11-28T05:48:56.937Z,-0.70
2018-11-28T05:51:31.257Z,-0.70
2018-11-28T05:54:05.913Z,-0.80
2018-11-28T05:56:40.404Z,-0.80
2018-11-28T05:59:14.882Z,-0.80
2018-11-28T06:01:49.415Z,-0.90
2018-11-28T06:04:23.979Z,-0.90
2018-11-28T06:06:58.498Z,-0.90
2018-11-28T06:09:33.080Z,-0.90
2018-11-28T06:12:07.647Z,-0.90
2018-11-28T06:14:42.051Z,-0.90
2018-11-28T06:17:16.601Z,-0.90
2018-11-28T06:19:51.026Z,-1.00
2018-11-28T06:22:25.681Z,-1.10
2018-11-28T06:25:00.228Z,-1.10
2018-11-28T06:27:34.557Z,-1.10
2018-11-28T06:30:23.695Z,-1.10
2018-11-28T06:32:58.285Z,-1.10
2018-11-28T06:35:32.615Z,-1.10
2018-11-28T06:38:07.238Z,-1.10
2018-11-28T06:40:41.857Z,-1.10
2018-11-28T06:43:16.195Z,-1.10
2018-11-28T06:45:50.502Z,-1.10
2018-11-28T06:48:24.968Z,-1.10
2018-11-28T06:50:59.619Z,-1.20
2018-11-28T06:53:34.121Z,-1.20
2018-11-28T06:56:08.572Z,-1.20
2018-11-28T06:58:43.123Z,-1.20
2018-11-28T07:01:17.465Z,-1.30
2018-11-28T07:03:51.819Z,-1.40
2018-11-28T07:06:26.334Z,-1.50
2018-11-28T07:09:00.750Z,-1.50
2018-11-28T07:11:35.323Z,-1.70
2018-11-28T07:14:09.650Z,-1.70
2018-11-28T07:16:43.991Z,-1.90
2018-11-28T07:19:18.428Z,-2.10
2018-11-28T07:21:52.764Z,-2.30
2018-11-28T07:24:27.138Z,-2.30
2018-11-28T07:27:01.647Z,-2.40
2018-11-28T07:29:36.121Z,-2.40
2018-11-28T07:32:10.702Z,-2.40
2018-11-28T07:34:45.140Z,-2.50
2018-11-28T07:37:19.433Z,-2.50
2018-11-28T07:39:53.749Z,-2.40
2018-11-28T07:42:28.029Z,-2.30
2018-11-28T07:45:02.532Z,-2.30
2018-11-28T07:47:37.077Z,-2.30
2018-11-28T07:50:11.557Z,-2.20
2018-11-28T07:52:46.005Z,-2.20
2018-11-28T07:55:20.626Z,-2.10
2018-11-28T07:57:54.886Z,-2.10
2018-11-28T08:00:29.103Z,-2.20
2018-11-28T08:03:03.561Z,-2.30
2018-11-28T08:05:38.797Z,-2.30
2018-11-28T08:08:13.109Z,-2.30
2018-11-28T08:10:47.473Z,-2.30
2018-11-28T08:13:21.832Z,-2.20
2018-11-28T08:15:56.307Z,-2.00
2018-11-28T08:18:30.595Z,-1.90
2018-11-28T08:21:05.734Z,-1.70
2018-11-28T08:23:40.189Z,-1.60
2018-11-28T08:26:14.718Z,-1.50
2018-11-28T08:28:49.298Z,-1.30
2018-11-28T08:31:23.891Z,-1.20
2018-11-28T08:33:58.235Z,-1.20
2018-11-28T08:36:32.710Z,-1.10
2018-11-28T08:39:13.000Z,-1.00
2018-11-28T08:41:47.610Z,-0.90
2018-11-28T08:44:22.103Z,-0.70
2018-11-28T08:46:56.741Z,-0.60
2018-11-28T08:49:31.093Z,-0.50
2018-11-28T08:52:05.422Z,-0.40
2018-11-28T08:54:39.755Z,-0.30
2018-11-28T08:57:13.989Z,-0.20
2018-11-28T08:59:49.888Z,0.00
2018-11-28T09:02:25.458Z,0.10
2018-11-28T09:04:59.981Z,0.30
2018-11-28T09:07:34.672Z,0.40
2018-11-28T09:10:13.187Z,0.50
2018-11-28T09:12:48.157Z,0.50
2018-11-28T09:15:24.493Z,0.70
2018-11-28T09:17:58.757Z,0.80
2018-11-28T09:20:33.855Z,0.90
2018-11-28T09:23:07.546Z,1.00
2018-11-28T09:25:41.992Z,1.10
2018-11-28T09:28:16.269Z,1.20
2018-11-28T09:30:50.607Z,1.30
2018-11-28T09:33:24.941Z,1.40
2018-11-28T09:35:59.366Z,1.50
2018-11-28T09:38:33.854Z,1.50
2018-11-28T09:41:08.210Z,1.70
2018-11-28T09:43:42.802Z,1.70
2018-11-28T09:46:17.271Z,1.90
2018-11-28T09:48:51.655Z,1.90
2018-11-28T09:51:26.154Z,2.00
2018-11-28T09:54:00.709Z,2.10
2018-11-28T09:56:35.345Z,2.10
2018-11-28T09:59:09.808Z,2.20
2018-11-28T10:01:44.344Z,2.20
2018-11-28T10:04:19.144Z,2.30
2018-11-28T10:06:53.761Z,2.30
2018-11-28T10:09:28.328Z,2.40
2018-11-28T10:12:03.089Z,2.40
2018-11-28T10:14:37.623Z,2.50
2018-11-28T10:17:12.222Z,2.60
2018-11-28T10:19:46.770Z,2.70
2018-11-28T10:22:21.190Z,2.70
2018-11-28T10:24:55.541Z,2.80
2018-11-28T10:27:30.027Z,2.90
2018-11-28T10:30:05.949Z,3.00
2018-11-28T10:32:40.494Z,3.00
2018-11-28T10:35:15.057Z,3.00
2018-11-28T10:37:49.892Z,3.00
2018-11-28T10:40:25.325Z,3.10
2018-11-28T10:43:00.685Z,3.10
2018-11-28T10:45:35.949Z,3.10
2018-11-28T10:48:11.874Z,3.10
2018-11-28T10:50:46.498Z,3.10
2018-11-28T10:53:21.010Z,3.10
2018-11-28T10:55:55.562Z,3.10
2018-11-28T10:58:30.251Z,3.20
2018-11-28T11:01:10.229Z,3.20
2018-11-28T11:03:50.319Z,3.30
2018-11-28T11:06:30.567Z,3.30
2018-11-28T11:09:13.688Z,3.40
2018-11-28T11:11:53.275Z,3.40
2018-11-28T11:14:33.204Z,3.40
2018-11-28T11:17:07.868Z,3.50
2018-11-28T11:19:42.554Z,3.50
2018-11-28T11:22:17.063Z,3.50
2018-11-28T11:24:51.795Z,3.60
2018-11-28T11:27:26.344Z,3.60
2018-11-28T11:30:00.765Z,3.60
2018-11-28T11:32:35.339Z,3.60
2018-11-28T11:35:10.260Z,3.60
2018-11-28T11:37:44.811Z,3.70
2018-11-28T11:40:19.370Z,3.70
2018-11-28T11:42:53.988Z,3.70
2018-11-28T11:45:28.415Z,3.70
2018-11-28T11:48:03.177Z,3.70
2018-11-28T11:50:37.841Z,3.60
2018-11-28T11:53:12.349Z,3.60
2018-11-28T11:55:46.997Z,3.60
2018-11-28T11:58:21.647Z,3.60
2018-11-28T12:00:56.314Z,3.50
2018-11-28T12:03:31.032Z,3.50
2018-11-28T12:06:05.792Z,3.50
2018-11-28T12:08:40.446Z,3.50
2018-11-28T12:11:15.072Z,3.50
2018-11-28T12:13:49.690Z,3.50
2018-11-28T12:16:24.317Z,3.60
2018-11-28T12:18:58.883Z,3.50
2018-11-28T12:21:33.431Z,3.40
2018-11-28T12:24:08.006Z,3.40
2018-11-28T12:26:42.610Z,3.40
2018-11-28T12:29:17.006Z,3.40
2018-11-28T12:31:51.436Z,3.50
2018-11-28T12:34:26.132Z,3.50
2018-11-28T12:37:00.878Z,3.60
2018-11-28T12:39:35.610Z,3.60
2018-11-28T12:42:09.997Z,3.70
2018-11-28T12:44:44.723Z,3.60
2018-11-28T12:47:19.240Z,3.60
2018-11-28T12:49:53.716Z,3.50
2018-11-28T12:52:28.311Z,3.50
2018-11-28T12:55:02.970Z,3.40
2018-11-28T12:57:37.479Z,3.40
2018-11-28T13:00:19.936Z,3.40
2018-11-28T13:02:54.344Z,3.40
2018-11-28T13:05:28.863Z,3.40
2018-11-28T13:08:03.164Z,3.30
2018-11-28T13:10:38.778Z,3.30
2018-11-28T13:13:13.086Z,3.30
2018-11-28T13:15:47.541Z,3.30
2018-11-28T13:18:22.040Z,3.20
2018-11-28T13:20:56.408Z,3.20
2018-11-28T13:23:31.013Z,3.30
2018-11-28T13:26:05.918Z,3.30
2018-11-28T13:28:40.542Z,3.40
2018-11-28T13:31:15.131Z,3.40
2018-11-28T13:33:49.701Z,3.40
2018-11-28T13:36:24.387Z,3.30
2018-11-28T13:38:58.964Z,3.20
2018-11-28T13:41:33.521Z,3.10
2018-11-28T13:44:08.038Z,3.00
2018-11-28T13:46:42.753Z,3.00
2018-11-28T13:49:17.616Z,3.00
2018-11-28T13:51:52.089Z,3.00
2018-11-28T13:54:26.507Z,3.00
2018-11-28T13:57:04.205Z,3.00
2018-11-28T13:59:35.950Z,3.00
2018-11-28T14:02:10.309Z,3.00
2018-11-28T14:04:44.926Z,2.80
2018-11-28T14:07:19.672Z,2.80
2018-11-28T14:09:54.148Z,2.80
2018-11-28T14:12:28.688Z,2.70
2018-11-28T14:15:03.694Z,2.70
2018-11-28T14:17:38.143Z,2.70
2018-11-28T14:20:12.880Z,2.60
2018-11-28T14:22:47.435Z,2.50
2018-11-28T14:25:22.003Z,2.50
2018-11-28T14:27:56.438Z,2.40
2018-11-28T14:30:30.858Z,2.40
2018-11-28T14:33:05.572Z,2.30
2018-11-28T14:35:40.090Z,2.30
2018-11-28T14:38:14.670Z,2.30
2018-11-28T14:40:49.142Z,2.30
2018-11-28T14:43:23.562Z,2.20
2018-11-28T14:45:58.219Z,2.20
2018-11-28T14:48:32.769Z,2.10
2018-11-28T14:51:07.266Z,2.10
2018-11-28T14:53:41.885Z,2.10
2018-11-28T14:56:16.372Z,2.10
2018-11-28T14:58:50.878Z,2.10
2018-11-28T15:01:25.654Z,2.10
2018-11-28T15:04:00.203Z,2.10
2018-11-28T15:06:38.988Z,2.00
2018-11-28T15:09:18.784Z,2.00
2018-11-28T15:11:53.270Z,2.00
2018-11-28T15:14:27.832Z,1.90
2018-11-28T15:17:02.348Z,2.00
2018-11-28T15:19:36.971Z,1.90
2018-11-28T15:22:12.217Z,1.90
2018-11-28T15:24:46.120Z,1.90
2018-11-28T15:27:20.681Z,1.90
2018-11-28T15:29:55.473Z,1.80
2018-11-28T15:32:29.959Z,1.70
2018-11-28T15:35:04.739Z,1.60
2018-11-28T15:37:39.349Z,1.60
2018-11-28T15:40:13.797Z,1.60
2018-11-28T15:42:48.317Z,1.60
2018-11-28T15:45:22.855Z,1.60
2018-11-28T15:47:57.193Z,1.60
2018-11-28T15:50:31.601Z,1.60
2018-11-28T15:53:06.653Z,1.60
2018-11-28T15:55:41.086Z,1.70
2018-11-28T15:58:15.539Z,1.70
2018-11-28T16:00:50.235Z,1.70
2018-11-28T16:03:24.696Z,1.70
2018-11-28T16:05:59.087Z,1.70
2018-11-28T16:08:33.608Z,1.70
2018-11-28T16:11:10.412Z,1.70
2018-11-28T16:13:44.993Z,1.70
2018-11-28T16:16:19.760Z,1.60
2018-11-28T16:18:57.798Z,1.60
2018-11-28T16:21:28.785Z,1.60
2018-11-28T16:24:03.363Z,1.60
2018-11-28T16:26:37.825Z,1.70
2018-11-28T16:29:12.320Z,1.70
2018-11-28T16:31:46.996Z,1.80
2018-11-28T16:34:21.541Z,1.80
2018-11-28T16:36:56.347Z,1.80
2018-11-28T16:39:30.801Z,1.80
2018-11-28T16:42:05.612Z,1.70
2018-11-28T16:44:40.309Z,1.80
2018-11-28T16:47:14.786Z,1.80
2018-11-28T16:49:49.437Z,1.80
2018-11-28T16:52:23.960Z,1.80
2018-11-28T16:54:58.567Z,1.80
2018-11-28T16:57:33.484Z,1.70
2018-11-28T17:00:15.558Z,1.80
2018-11-28T17:02:50.551Z,1.70
2018-11-28T17:05:25.229Z,1.70
2018-11-28T17:07:59.707Z,1.70
2018-11-28T17:10:34.324Z,1.70
2018-11-28T17:13:08.856Z,1.70
2018-11-28T17:15:43.533Z,1.60
2018-11-28T17:18:18.099Z,1.60
2018-11-28T17:20:52.525Z,1.60
2018-11-28T17:23:27.051Z,1.50
2018-11-28T17:26:01.655Z,1.50
2018-11-28T17:28:36.254Z,1.50
2018-11-28T17:31:10.819Z,1.50
2018-11-28T17:33:45.552Z,1.50
2018-11-28T17:36:20.169Z,1.60
2018-11-28T17:38:54.695Z,1.60
2018-11-28T17:41:29.132Z,1.60
2018-11-28T17:44:03.587Z,1.60
2018-11-28T17:46:38.332Z,1.60
2018-11-28T17:49:13.000Z,1.60
2018-11-28T17:51:47.628Z,1.60
2018-11-28T17:54:22.196Z,1.60
2018-11-28T17:56:56.637Z,1.60
2018-11-28T17:59:31.165Z,1.60
2018-11-28T18:02:06.298Z,1.60
2018-11-28T18:04:40.805Z,1.60
2018-11-28T18:07:15.188Z,1.60
2018-11-28T18:09:49.800Z,1.60
2018-11-28T18:12:24.326Z,1.60
2018-11-28T18:14:58.951Z,1.50
2018-11-28T18:17:33.580Z,1.60
2018-11-28T18:20:08.212Z,1.60
2018-11-28T18:22:42.649Z,1.60
2018-11-28T18:25:17.245Z,1.50
2018-11-28T18:27:51.879Z,1.60
2018-11-28T18:30:26.365Z,1.50
2018-11-28T18:33:01.662Z,1.60
2018-11-28T18:35:36.404Z,1.50
2018-11-28T18:38:10.786Z,1.50
2018-11-28T18:40:45.264Z,1.50
2018-11-28T18:43:19.933Z,1.50
2018-11-28T18:45:55.089Z,1.50
2018-11-28T18:48:29.781Z,1.50
2018-11-28T18:51:04.167Z,1.40
2018-11-28T18:53:38.721Z,1.50
2018-11-28T18:56:13.332Z,1.50
2018-11-28T18:58:47.868Z,1.50
2018-11-28T19:01:22.416Z,1.50
2018-11-28T19:03:57.024Z,1.50
2018-11-28T19:06:31.542Z,1.50
2018-11-28T19:09:09.520Z,1.50
2018-11-28T19:11:44.110Z,1.50
2018-11-28T19:14:18.641Z,1.50
2018-11-28T19:16:53.167Z,1.50
2018-11-28T19:19:27.666Z,1.50
2018-11-28T19:22:02.161Z,1.50
2018-11-28T19:24:36.653Z,1.50
2018-11-28T19:27:11.262Z,1.50
2018-11-28T19:29:45.817Z,1.50
2018-11-28T19:32:20.704Z,1.50
2018-11-28T19:34:55.290Z,1.50
2018-11-28T19:37:29.728Z,1.50
2018-11-28T19:40:06.520Z,1.50
2018-11-28T19:42:40.829Z,1.50
2018-11-28T19:45:15.335Z,1.40
2018-11-28T19:47:49.626Z,1.40
2018-11-28T19:50:27.258Z,1.40
2018-11-28T19:53:01.794Z,1.40
2018-11-28T19:55:36.117Z,1.40
2018-11-28T19:58:10.708Z,1.30
2018-11-28T20:00:46.222Z,1.30
2018-11-28T20:03:20.615Z,1.30
2018-11-28T20:05:55.223Z,1.30
2018-11-28T20:08:29.723Z,1.20
2018-11-28T20:11:04.098Z,1.20
2018-11-28T20:13:38.808Z,1.20
2018-11-28T20:16:12.944Z,1.10
2018-11-28T20:18:47.291Z,1.10
2018-11-28T20:21:21.555Z,1.20
2018-11-28T20:23:55.766Z,1.20
2018-11-28T20:26:30.167Z,1.20
2018-11-28T20:29:04.366Z,1.20
2018-11-28T20:31:38.647Z,1.20
2018-11-28T20:34:13.074Z,1.20
2018-11-28T20:36:47.627Z,1.30
2018-11-28T20:39:22.065Z,1.30
2018-11-28T20:41:56.636Z,1.20
2018-11-28T20:44:31.052Z,1.20
2018-11-28T20:47:05.352Z,1.20
2018-11-28T20:49:39.811Z,1.20
2018-11-28T20:52:14.288Z,1.20
2018-11-28T20:54:48.721Z,1.20
2018-11-28T20:57:23.042Z,1.20
2018-11-28T20:59:57.304Z,1.20
2018-11-28T21:02:31.708Z,1.10
2018-11-28T21:05:06.044Z,1.20
2018-11-28T21:07:40.557Z,1.10
2018-11-28T21:10:21.055Z,1.10
2018-11-28T21:12:55.286Z,1.10
2018-11-28T21:15:29.717Z,1.10
2018-11-28T21:18:04.137Z,1.20
2018-11-28T21:20:39.382Z,1.20
2018-11-28T21:23:15.096Z,1.20
2018-11-28T21:25:49.365Z,1.10
2018-11-28T21:28:23.876Z,1.10
2018-11-28T21:30:58.156Z,1.10
2018-11-28T21:33:32.569Z,1.00
2018-11-28T21:36:07.565Z,1.00
2018-11-28T21:38:42.038Z,0.90
2018-11-28T21:41:16.671Z,0.80
2018-11-28T21:43:51.293Z,0.80
2018-11-28T21:46:25.936Z,0.80
2018-11-28T21:49:00.634Z,0.80
2018-11-28T21:51:35.329Z,0.80
2018-11-28T21:54:09.763Z,0.80
2018-11-28T21:56:44.186Z,0.80
2018-11-28T21:59:18.549Z,0.80
2018-11-28T22:01:52.890Z,0.80
2018-11-28T22:04:27.293Z,0.80
2018-11-28T22:07:01.570Z,0.80
2018-11-28T22:09:35.953Z,0.80
2018-11-28T22:12:10.439Z,0.80
2018-11-28T22:14:44.717Z,0.80
2018-11-28T22:17:18.935Z,0.80
2018-11-28T22:19:53.259Z,0.90
2018-11-28T22:22:27.709Z,0.80
2018-11-28T22:25:02.006Z,0.80
2018-11-28T22:27:36.294Z,0.80
2018-11-28T22:30:12.001Z,0.80
2018-11-28T22:32:46.341Z,0.80
2018-11-28T22:35:20.753Z,0.80
2018-11-28T22:37:55.099Z,0.80
2018-11-28T22:40:30.616Z,0.80
2018-11-28T22:43:05.044Z,0.80
2018-11-28T22:45:39.408Z,0.80
2018-11-28T22:48:13.721Z,0.80
2018-11-28T22:50:48.327Z,0.80
2018-11-28T22:53:22.670Z,0.80
2018-11-28T22:55:57.225Z,0.80
2018-11-28T22:58:31.615Z,0.70
2018-11-28T23:01:10.254Z,0.70
2018-11-28T23:03:44.897Z,0.60
2018-11-28T23:06:19.381Z,0.50
2018-11-28T23:08:53.881Z,0.50
2018-11-28T23:11:28.216Z,0.50
2018-11-28T23:14:02.726Z,0.40
2018-11-28T23:16:37.149Z,0.40
2018-11-28T23:19:11.704Z,0.50
2018-11-28T23:21:50.103Z,0.50
2018-11-28T23:24:20.820Z,0.50
2018-11-28T23:26:55.191Z,0.40
2018-11-28T23:29:29.538Z,0.40
2018-11-28T23:32:04.085Z,0.40
2018-11-28T23:34:38.712Z,0.40
2018-11-28T23:37:13.772Z,0.40
2018-11-28T23:39:48.439Z,0.40
2018-11-28T23:42:22.783Z,0.50
2018-11-28T23:44:57.144Z,0.50
2018-11-28T23:47:31.523Z,0.50
2018-11-28T23:50:09.979Z,0.50
2018-11-28T23:52:44.438Z,0.50
2018-11-28T23:55:25.714Z,0.50
2018-11-28T23:58:00.292Z,0.40
